MST,Max TemperatureF,Mean TemperatureF,Min TemperatureF,Max Dew PointF,MeanDew PointF,Min DewpointF,Max Humidity, Mean Humidity, Min Humidity, Max Sea Level PressureIn, Mean Sea Level PressureIn, Min Sea Level PressureIn, Max VisibilityMiles, Mean VisibilityMiles, Min VisibilityMiles, Max Wind SpeedMPH, Mean Wind SpeedMPH, Max Gust SpeedMPH,PrecipitationIn, CloudCover, Events, WindDirDegrees
2013-7-1,111,99,87,57,53,48,35,22,13,29.88,29.81,29.73,20,20,20,12,7,,0.00,4,,299
2013-7-2,105,96,86,59,57,52,40,29,19,30.01,29.91,29.79,,,,17,12,,0.00,5,,181
2013-7-3,105,94,84,54,52,48,35,23,14,29.88,29.81,29.66,,,,12,6,,0.00,3,,222
2013-7-4,105,96,87,55,53,52,29,22,17,29.82,29.73,29.65,,,,12,9,,0.00,5,,233
2013-7-5,102,94,86,61,56,52,40,29,18,29.85,29.78,29.69,,,,12,5,,0.00,6,,281
2013-7-6,107,96,86,59,57,54,40,27,19,29.80,29.71,29.64,,,,12,7,,0.00,4,,238
2013-7-7,111,99,87,63,55,48,43,23,12,29.79,29.73,29.66,,,,13,6,,0.00,5,,237
2013-7-8,111,101,91,57,53,45,31,20,11,29.88,29.81,29.75,,,,12,7,,0.00,4,,240
2013-7-9,102,94,87,64,60,55,40,32,22,30.03,29.95,29.81,,,,14,9,,0.00,6,,261
2013-7-10,102,92,82,64,62,59,54,37,24,29.98,29.91,29.81,,,,12,10,17,0.00,5,,268
2013-7-11,95,88,80,68,65,63,61,46,36,29.96,29.91,29.83,20,20,20,12,8,,0.00,7,,228
2013-7-12,95,88,80,72,62,57,74,45,32,29.91,29.88,29.83,10,5,1,29,6,40,0.00,6,Rain,133
2013-7-13,104,91,78,63,60,57,57,36,21,29.93,29.86,29.77,,,,10,7,,0.00,4,,274
2013-7-14,107,97,87,63,59,54,40,28,17,29.89,29.82,29.72,,,,17,9,,0.00,4,,212
2013-7-15,107,97,87,68,60,57,49,31,19,29.82,29.75,29.68,20,20,20,17,6,23,0.00,5,,162
2013-7-16,96,90,80,68,62,61,65,40,30,29.92,29.89,29.85,20,17,10,20,7,29,0.00,7,Thunderstorm,121
2013-7-17,102,90,78,66,59,54,65,33,21,30.00,29.93,29.85,,,,13,9,,0.00,5,,291
2013-7-18,107,94,82,57,55,54,40,28,17,29.98,29.88,29.77,,,,12,8,,0.00,6,,76
2013-7-19,102,91,80,66,61,59,61,35,24,29.92,29.84,29.75,,,,12,8,,0.00,6,,246
2013-7-20,98,90,82,68,64,61,62,42,29,29.89,29.80,29.71,,,,23,10,34,0.00,6,Rain-Thunderstorm,272
2013-7-21,82,78,73,77,73,70,100,83,70,29.93,29.88,29.83,20,20,20,14,8,,0.00,6,Rain,318
2013-7-22,91,84,77,75,67,59,94,56,34,29.98,29.92,29.86,,,,12,7,,0.00,5,,246
2013-7-23,100,90,80,70,63,59,70,41,25,29.97,29.89,29.81,,,,12,7,,0.00,1,,260
2013-7-24,104,94,84,63,61,59,48,34,23,29.89,29.83,29.75,,,,13,7,,0.00,4,,279
2013-7-25,100,90,80,70,66,63,70,45,30,29.95,29.92,29.89,20,20,20,14,8,,0.00,6,,190
2013-7-26,100,92,84,72,67,63,66,43,29,30.06,29.99,29.91,20,20,20,12,7,,0.00,6,Rain,156
2013-7-27,100,90,80,66,63,59,61,38,25,29.99,29.90,29.77,,,,12,8,,0.00,4,,280
2013-7-28,105,94,84,64,54,46,51,27,14,29.85,29.78,29.71,,,,14,7,,0.00,4,,232
2013-7-29,104,94,84,48,45,43,29,18,12,29.95,29.91,29.87,,,,10,7,,0.00,1,,168
2013-7-30,105,94,82,52,50,48,35,23,15,30.07,30.01,29.93,10,10,10,12,5,,0.00,3,,242
2013-7-31,107,96,86,54,51,46,33,22,13,30.01,29.93,29.84,,,,12,7,,0.00,6,,236